^^
Meteo Knjazevac Station Historical Data
Daily Summary for October 26, 2021 Units:  English    Metric   Both
Daily Weekly Monthly Yearly Custom
  High: Low: Average:
Temperature: 50.9 °F 28.9 °F 35.7 °F
Dew Point: 43.8 °F 27.8 °F 34.1 °F
Humidity: 99% 75% 94%
Wind Speed: 6mph 0mph 1.8mph
Wind Gust: 12mph - -
Wind- - SE
Pressure: 30.39 in 30.28 in -
Precipitation: 0.00 in    
Historical Graphs
 
 
Tabular Data for October 26, 2021
Time Temperature Dew Point Pressure Wind Wind Speed Wind Gust Humidity Rainfall Rate (Hourly) solar Conditions
00:00 36 °F 34.1 °F 30.39 in ESE 1 mph 2 mph 93% 0.00 in 0 W/m2
00:10 35.8 °F 34.2 °F 30.39 in Calm   3 mph 94% 0.00 in 0 W/m2
00:20 35.4 °F 33.6 °F 30.39 in North 1 mph 2 mph 93% 0.00 in 0 W/m2
00:30 34.9 °F 33.1 °F 30.39 in NW 1 mph 3 mph 93% 0.00 in 0 W/m2
00:40 34.7 °F 32.9 °F 30.39 in Calm   3 mph 93% 0.00 in 0 W/m2
00:50 34.2 °F 32.3 °F 30.39 in Calm   3 mph 93% 0.00 in 0 W/m2
01:00 33.8 °F 32 °F 30.39 in NW 1 mph 5 mph 93% 0.00 in 0 W/m2
01:10 33.6 °F 32.1 °F 30.39 in NNW 1 mph 5 mph 94% 0.00 in 0 W/m2
01:20 33.3 °F 31.7 °F 30.39 in WNW 2 mph 5 mph 94% 0.00 in 0 W/m2
01:30 33.3 °F 31.7 °F 30.39 in Calm   2 mph 94% 0.00 in 0 W/m2
01:40 33.1 °F 31.5 °F 30.39 in NW 1 mph 2 mph 94% 0.00 in 0 W/m2
01:50 32.5 °F 31 °F 30.39 in Calm   3 mph 94% 0.00 in 0 W/m2
02:00 32.4 °F 30.8 °F 30.39 in Calm   2 mph 94% 0.00 in 0 W/m2
02:10 32 °F 30.5 °F 30.39 in Calm   4 mph 94% 0.00 in 0 W/m2
02:20 32 °F 30.7 °F 30.38 in Calm   2 mph 95% 0.00 in 0 W/m2
02:30 31.8 °F 30.6 °F 30.39 in Calm   2 mph 95% 0.00 in 0 W/m2
02:40 31.6 °F 30.4 °F 30.38 in Calm   2 mph 95% 0.00 in 0 W/m2
02:50 31.5 °F 30.2 °F 30.38 in NW 1 mph 2 mph 95% 0.00 in 0 W/m2
03:00 31.3 °F 30 °F 30.38 in WNW 1 mph 3 mph 95% 0.00 in 0 W/m2
03:10 31.1 °F 29.8 °F 30.37 in West 2 mph 4 mph 95% 0.00 in 0 W/m2
03:20 30.9 °F 29.7 °F 30.37 in WNW 1 mph 3 mph 95% 0.00 in 0 W/m2
03:30 30.7 °F 29.5 °F 30.37 in WNW 2 mph 2 mph 95% 0.00 in 0 W/m2
03:40 30.6 °F 29.3 °F 30.37 in North 1 mph 3 mph 95% 0.00 in 0 W/m2
03:50 30.6 °F 29.3 °F 30.37 in Calm   2 mph 95% 0.00 in 0 W/m2
04:00 30.4 °F 29.1 °F 30.37 in NNE 1 mph 2 mph 95% 0.00 in 0 W/m2
04:10 30.4 °F 29.1 °F 30.37 in NNW 1 mph 2 mph 95% 0.00 in 0 W/m2
04:20 30 °F 28.8 °F 30.37 in NW 2 mph 3 mph 95% 0.00 in 0 W/m2
04:30 29.8 °F 28.6 °F 30.37 in NNW 1 mph 2 mph 95% 0.00 in 0 W/m2
04:40 29.8 °F 28.6 °F 30.37 in WNW 1 mph 2 mph 95% 0.00 in 0 W/m2
04:50 29.8 °F 28.8 °F 30.37 in Calm   2 mph 96% 0.00 in 0 W/m2
05:00 29.5 °F 28.2 °F 30.37 in West 1 mph 3 mph 95% 0.00 in 0 W/m2
05:10 29.1 °F 27.8 °F 30.37 in WNW 3 mph 4 mph 95% 0.00 in 0 W/m2
05:20 28.9 °F 27.9 °F 30.37 in NW 1 mph 4 mph 96% 0.00 in 0 W/m2
05:30 29.3 °F 28.3 °F 30.37 in Calm   2 mph 96% 0.00 in 0 W/m2
05:40 29.5 °F 29 °F 30.37 in Calm   2 mph 98% 0.00 in 0 W/m2
05:50 29.7 °F 29.2 °F 30.37 in WNW 1 mph 3 mph 98% 0.00 in 0 W/m2
06:00 29.8 °F 29.3 °F 30.37 in WNW 2 mph 4 mph 98% 0.00 in 0 W/m2
06:10 30.2 °F 30 °F 30.37 in WNW 2 mph 5 mph 99% 0.00 in 0 W/m2
06:20 30.6 °F 30.3 °F 30.37 in WNW 2 mph 3 mph 99% 0.00 in 0 W/m2
06:30 30.9 °F 30.7 °F 30.36 in Calm   2 mph 99% 0.00 in 0 W/m2
06:40 30.9 °F 30.7 °F 30.36 in NW 1 mph 2 mph 99% 0.00 in 0 W/m2
06:50 31.1 °F 30.6 °F 30.36 in Calm   2 mph 98% 0.00 in 0 W/m2
07:00 31.1 °F 30.6 °F 30.37 in WNW 2 mph 3 mph 98% 0.00 in 1 W/m2
07:10 31.3 °F 30.8 °F 30.37 in Calm   2 mph 98% 0.00 in 3 W/m2
07:20 31.5 °F 31 °F 30.37 in WNW 1 mph 3 mph 98% 0.00 in 8 W/m2
07:30 31.6 °F 31.1 °F 30.37 in West 1 mph 3 mph 98% 0.00 in 11 W/m2
07:40 31.8 °F 31.3 °F 30.37 in Calm   2 mph 98% 0.00 in 17 W/m2
07:50 32.2 °F 31.9 °F 30.38 in Calm   2 mph 99% 0.00 in 20 W/m2
08:00 32.6 °F 32.3 °F 30.38 in Calm   2 mph 99% 0.00 in 28 W/m2
08:10 33.1 °F 32.8 °F 30.38 in NNW 1 mph 2 mph 99% 0.00 in 38 W/m2
08:20 33.5 °F 33.2 °F 30.38 in NNE 1 mph 3 mph 99% 0.00 in 39 W/m2
08:30 34 °F 33.7 °F 30.38 in NNE 2 mph 4 mph 99% 0.00 in 55 W/m2
08:40 34.3 °F 34.1 °F 30.38 in NE 1 mph 3 mph 99% 0.00 in 56 W/m2
08:50 34.5 °F 34.3 °F 30.38 in North 1 mph 3 mph 99% 0.00 in 63 W/m2
09:00 35.1 °F 34.8 °F 30.38 in NNE 1 mph 2 mph 99% 0.00 in 62 W/m2
09:10 35.4 °F 35.2 °F 30.37 in NNE 3 mph 5 mph 99% 0.00 in 70 W/m2
09:20 35.8 °F 35.5 °F 30.37 in NNE 2 mph 7 mph 99% 0.00 in 70 W/m2
09:30 36 °F 35.8 °F 30.37 in NNE 2 mph 6 mph 99% 0.00 in 103 W/m2
09:40 36.3 °F 36.1 °F 30.37 in NE 5 mph 7 mph 99% 0.00 in 115 W/m2
09:50 36.7 °F 36.4 °F 30.37 in NNE 3 mph 7 mph 99% 0.00 in 114 W/m2
10:00 37.1 °F 36.8 °F 30.37 in NNE 6 mph 8 mph 99% 0.00 in 124 W/m2
10:10 37.4 °F 37.1 °F 30.37 in NNE 2 mph 7 mph 99% 0.00 in 111 W/m2
10:20 37.8 °F 37.5 °F 30.37 in North 5 mph 7 mph 99% 0.00 in 117 W/m2
10:30 37.9 °F 37.4 °F 30.37 in NNE 3 mph 9 mph 98% 0.00 in 112 W/m2
10:40 38.3 °F 37.8 °F 30.37 in NNE 2 mph 8 mph 98% 0.00 in 108 W/m2
10:50 38.5 °F 37.4 °F 30.37 in North 3 mph 7 mph 96% 0.00 in 114 W/m2
11:00 38.5 °F 37.5 °F 30.36 in North 3 mph 7 mph 96% 0.00 in 107 W/m2
11:10 38.8 °F 37.8 °F 30.36 in North 3 mph 8 mph 96% 0.00 in 122 W/m2
11:20 39.2 °F 38.2 °F 30.36 in North 3 mph 6 mph 96% 0.00 in 139 W/m2
11:30 39.6 °F 38.2 °F 30.36 in NNE 3 mph 8 mph 95% 0.00 in 166 W/m2
11:40 40 °F 38.7 °F 30.35 in NNE 3 mph 8 mph 95% 0.00 in 163 W/m2
11:50 40.5 °F 38.9 °F 30.35 in NNE 6 mph 8 mph 94% 0.00 in 203 W/m2
12:00 41 °F 39.4 °F 30.35 in NNE 5 mph 8 mph 94% 0.00 in 191 W/m2
12:10 41.4 °F 39.5 °F 30.34 in NNE 2 mph 8 mph 93% 0.00 in 207 W/m2
12:20 41.9 °F 40 °F 30.34 in North 2 mph 11 mph 93% 0.00 in 260 W/m2
12:30 42.4 °F 40 °F 30.34 in NNE 3 mph 9 mph 91% 0.00 in 302 W/m2
12:40 43 °F 40.2 °F 30.33 in NNE 3 mph 9 mph 90% 0.00 in 320 W/m2
12:50 44.1 °F 41.4 °F 30.33 in NNE 3 mph 8 mph 90% 0.00 in 506 W/m2
13:00 45.6 °F 42.2 °F 30.32 in NNE 3 mph 12 mph 88% 0.00 in 507 W/m2
13:10 46.8 °F 42.5 °F 30.32 in North 2 mph 8 mph 85% 0.00 in 499 W/m2
13:20 47.8 °F 43.2 °F 30.31 in NNE 6 mph 10 mph 84% 0.00 in 490 W/m2
13:30 48.4 °F 42.9 °F 30.31 in NNE 3 mph 9 mph 81% 0.00 in 479 W/m2
13:40 48.9 °F 43 °F 30.30 in NNE 5 mph 10 mph 80% 0.00 in 466 W/m2
13:50 49.5 °F 43.2 °F 30.30 in North 5 mph 12 mph 79% 0.00 in 452 W/m2
14:00 49.9 °F 43.3 °F 30.30 in NNE 5 mph 9 mph 78% 0.00 in 437 W/m2
14:10 50.4 °F 43.8 °F 30.29 in North 3 mph 8 mph 78% 0.00 in 420 W/m2
14:20 50.7 °F 43.8 °F 30.28 in NNE 5 mph 11 mph 77% 0.00 in 403 W/m2
14:30 50.9 °F 43.3 °F 30.28 in North 3 mph 10 mph 75% 0.00 in 384 W/m2
Knjazevac, Serbia
Compliments of Weather Underground - 2 mb